createdAt,value
2023-08-29T00:01:48.777Z,25.29
2023-08-29T00:06:53.666Z,25.29
2023-08-29T00:11:57.402Z,25.28
2023-08-29T00:17:00.853Z,25.27
2023-08-29T00:22:06.039Z,25.27
2023-08-29T00:27:09.486Z,25.28
2023-08-29T00:32:13.211Z,25.27
2023-08-29T00:37:18.026Z,25.27
2023-08-29T00:42:21.495Z,25.27
2023-08-29T00:47:25.003Z,25.26
2023-08-29T00:52:29.863Z,25.26
2023-08-29T00:57:33.382Z,25.25
2023-08-29T01:02:36.892Z,25.25
2023-08-29T01:07:41.899Z,25.26
2023-08-29T01:12:53.366Z,25.25
2023-08-29T01:17:59.158Z,25.25
2023-08-29T01:23:14.909Z,25.25
2023-08-29T01:28:20.690Z,25.24
2023-08-29T01:33:24.208Z,25.25
2023-08-29T01:38:27.778Z,25.25
2023-08-29T01:43:32.682Z,25.24
2023-08-29T01:48:36.456Z,25.24
2023-08-29T01:53:40.702Z,25.24
2023-08-29T01:58:45.697Z,25.22
2023-08-29T02:03:49.379Z,25.22
2023-08-29T02:08:52.988Z,25.22
2023-08-29T02:13:57.987Z,25.22
2023-08-29T02:19:01.517Z,25.22
2023-08-29T02:24:05.426Z,25.22
2023-08-29T02:29:10.365Z,25.20
2023-08-29T02:34:13.876Z,25.21
2023-08-29T02:39:17.652Z,25.21
2023-08-29T02:44:22.489Z,25.20
2023-08-29T02:49:25.921Z,25.21
2023-08-29T02:54:29.365Z,25.20
2023-08-29T02:59:34.404Z,25.19
2023-08-29T03:04:37.942Z,25.21
2023-08-29T03:09:41.363Z,25.20
2023-08-29T03:14:46.215Z,25.19
2023-08-29T03:19:50.609Z,25.20
2023-08-29T03:24:54.030Z,25.19
2023-08-29T03:29:59.176Z,25.18
2023-08-29T03:35:02.735Z,25.17
2023-08-29T03:40:08.097Z,25.18
2023-08-29T03:45:13.051Z,25.17
2023-08-29T03:50:17.939Z,25.17
2023-08-29T03:55:23.552Z,25.16
2023-08-29T04:00:28.803Z,25.16
2023-08-29T04:05:32.712Z,25.15
2023-08-29T04:10:40.182Z,25.15
2023-08-29T04:15:45.036Z,25.15
2023-08-29T04:20:48.532Z,25.16
2023-08-29T04:25:52.418Z,25.15
2023-08-29T04:30:57.300Z,25.15
2023-08-29T04:36:01.268Z,25.15
2023-08-29T04:41:05.230Z,25.15
2023-08-29T04:46:10.197Z,25.14
2023-08-29T04:51:13.673Z,25.15
2023-08-29T04:56:17.790Z,25.14
2023-08-29T05:01:22.637Z,25.14
2023-08-29T05:06:27.136Z,25.11
2023-08-29T05:11:30.985Z,25.12
2023-08-29T05:16:35.845Z,25.13
2023-08-29T05:21:39.328Z,25.13
2023-08-29T05:26:42.769Z,25.12
2023-08-29T05:31:47.575Z,25.11
2023-08-29T05:36:52.409Z,25.11
2023-08-29T05:41:55.850Z,25.11
2023-08-29T05:47:00.710Z,25.10
2023-08-29T05:52:04.242Z,25.11
2023-08-29T05:57:08.202Z,25.10
2023-08-29T06:02:13.020Z,25.10
2023-08-29T06:07:16.471Z,25.10
2023-08-29T06:12:19.976Z,25.10
2023-08-29T06:17:24.861Z,25.09
2023-08-29T06:22:28.388Z,25.08
2023-08-29T06:27:31.946Z,25.07
2023-08-29T06:32:37.121Z,25.06
2023-08-29T06:37:41.098Z,25.08
2023-08-29T06:42:44.541Z,25.08
2023-08-29T06:47:49.399Z,25.08
2023-08-29T06:52:52.935Z,25.07
2023-08-29T06:57:56.384Z,25.07
2023-08-29T07:03:01.356Z,25.06
2023-08-29T07:08:06.033Z,25.06
2023-08-29T07:13:09.673Z,25.05
2023-08-29T07:18:14.749Z,25.05
2023-08-29T07:23:18.370Z,25.06
2023-08-29T07:28:21.815Z,25.08
2023-08-29T07:33:26.880Z,25.07
2023-08-29T07:38:30.669Z,25.08
2023-08-29T07:43:34.126Z,25.08
2023-08-29T07:48:38.974Z,25.08
2023-08-29T07:53:42.461Z,25.10
2023-08-29T07:58:45.915Z,25.09
2023-08-29T08:03:50.773Z,25.10
2023-08-29T08:08:56.233Z,25.10
2023-08-29T08:13:59.685Z,25.10
2023-08-29T08:19:05.393Z,25.11
2023-08-29T08:24:09.518Z,25.11
2023-08-29T08:29:12.978Z,25.12
2023-08-29T08:34:17.929Z,25.10
2023-08-29T08:39:21.402Z,25.11
2023-08-29T08:44:25.170Z,25.11
2023-08-29T08:49:30.104Z,25.11
2023-08-29T08:54:33.528Z,25.12
2023-08-29T08:59:36.944Z,25.14
2023-08-29T09:04:41.823Z,25.14
2023-08-29T09:09:45.287Z,25.15
2023-08-29T09:14:48.731Z,25.15
2023-08-29T09:19:53.688Z,25.15
2023-08-29T09:25:04.981Z,25.15
2023-08-29T09:30:12.994Z,25.16
2023-08-29T09:35:20.339Z,25.16
2023-08-29T09:45:31.662Z,25.17
2023-08-29T09:50:37.557Z,25.17
2023-08-29T09:55:44.453Z,25.18
2023-08-29T10:00:49.105Z,25.17
2023-08-29T10:05:54.138Z,25.18
2023-08-29T10:10:58.171Z,25.20
2023-08-29T10:16:02.330Z,25.20
2023-08-29T10:21:07.411Z,25.20
2023-08-29T10:26:11.844Z,25.20
2023-08-29T10:31:15.638Z,25.21
2023-08-29T10:36:21.270Z,25.21
2023-08-29T10:41:24.759Z,25.21
2023-08-29T10:46:28.243Z,25.22
2023-08-29T10:51:33.488Z,25.21
2023-08-29T10:56:46.641Z,25.22
2023-08-29T11:01:50.913Z,25.22
2023-08-29T11:06:56.699Z,25.22
2023-08-29T11:12:10.446Z,25.22
2023-08-29T11:17:14.714Z,25.21
2023-08-29T11:22:20.013Z,25.22
2023-08-29T11:27:24.505Z,25.21
2023-08-29T11:32:29.435Z,25.21
2023-08-29T11:37:34.341Z,25.22
2023-08-29T11:43:05.716Z,25.23
2023-08-29T11:48:01.760Z,25.23
2023-08-29T11:53:06.781Z,25.24
2023-08-29T11:58:10.306Z,25.25
2023-08-29T12:03:14.311Z,25.24
2023-08-29T12:08:19.152Z,25.25
2023-08-29T12:13:23.673Z,25.24
2023-08-29T12:18:27.824Z,25.24
2023-08-29T12:23:32.711Z,25.25
2023-08-29T12:28:36.137Z,25.24
2023-08-29T12:33:39.596Z,25.24
2023-08-29T12:38:44.822Z,25.25
2023-08-29T12:43:48.269Z,25.24
2023-08-29T12:48:51.693Z,25.24
2023-08-29T12:53:56.545Z,25.25
2023-08-29T12:59:00.223Z,25.26
2023-08-29T13:04:05.191Z,25.25
2023-08-29T13:09:13.441Z,25.25
2023-08-29T13:14:25.345Z,25.24
2023-08-29T13:19:30.224Z,25.26
2023-08-29T13:24:35.073Z,25.25
2023-08-29T13:29:38.554Z,25.25
2023-08-29T13:34:42.038Z,25.24
2023-08-29T13:39:46.848Z,25.26
2023-08-29T13:44:50.761Z,25.25
2023-08-29T13:49:54.606Z,25.26
2023-08-29T13:54:59.522Z,25.26
2023-08-29T14:00:04.544Z,25.26
2023-08-29T14:05:09.607Z,25.26
2023-08-29T14:10:14.478Z,25.26
2023-08-29T14:15:18.075Z,25.26
2023-08-29T14:20:21.508Z,25.27
2023-08-29T14:25:26.358Z,25.27
2023-08-29T14:30:29.799Z,25.27
2023-08-29T14:35:33.257Z,25.26
2023-08-29T14:40:39.012Z,25.26
2023-08-29T14:45:43.256Z,25.27
2023-08-29T14:50:46.778Z,25.26
2023-08-29T14:55:54.687Z,25.25
2023-08-29T15:00:58.765Z,25.27
2023-08-29T15:06:03.604Z,25.25
2023-08-29T15:11:08.442Z,25.25
2023-08-29T15:16:11.984Z,25.26
2023-08-29T15:21:16.927Z,25.24
2023-08-29T15:26:23.592Z,25.25
2023-08-29T15:31:27.056Z,25.26
2023-08-29T15:36:30.477Z,25.25
2023-08-29T15:41:35.309Z,25.25
2023-08-29T15:46:38.827Z,25.25
2023-08-29T15:51:42.269Z,25.25
2023-08-29T15:56:47.445Z,25.27
2023-08-29T16:01:50.946Z,25.27
2023-08-29T16:06:54.801Z,25.25
2023-08-29T16:17:22.280Z,25.27
2023-08-29T16:22:25.721Z,25.27
2023-08-29T16:27:32.318Z,25.27
2023-08-29T16:32:36.047Z,25.27
2023-08-29T16:37:39.721Z,25.26
2023-08-29T16:42:44.580Z,25.27
2023-08-29T16:47:48.176Z,25.27
2023-08-29T16:52:51.632Z,25.28
2023-08-29T16:57:57.937Z,25.27
2023-08-29T17:03:08.470Z,25.28
2023-08-29T17:08:14.409Z,25.27
2023-08-29T17:13:19.207Z,25.28
2023-08-29T17:18:22.638Z,25.29
2023-08-29T17:23:26.041Z,25.28
2023-08-29T17:28:30.916Z,25.28
2023-08-29T17:33:34.321Z,25.28
2023-08-29T17:38:37.770Z,25.29
2023-08-29T17:43:42.612Z,25.29
2023-08-29T17:48:46.098Z,25.29
2023-08-29T17:53:49.545Z,25.31
2023-08-29T17:58:54.418Z,25.29
2023-08-29T18:03:57.917Z,25.32
2023-08-29T18:09:01.372Z,25.31
2023-08-29T18:14:06.233Z,25.31
2023-08-29T18:19:09.677Z,25.31
2023-08-29T18:24:14.812Z,25.31
2023-08-29T18:29:19.665Z,25.31
2023-08-29T18:34:23.434Z,25.31
2023-08-29T18:39:26.875Z,25.31
2023-08-29T18:44:31.705Z,25.31
2023-08-29T18:49:36.817Z,25.31
2023-08-29T18:54:40.353Z,25.32
2023-08-29T18:59:45.235Z,25.31
2023-08-29T19:04:48.674Z,25.32
2023-08-29T19:09:52.108Z,25.33
2023-08-29T19:14:57.279Z,25.32
2023-08-29T19:20:00.786Z,25.32
2023-08-29T19:25:04.473Z,25.32
2023-08-29T19:30:10.968Z,25.33
2023-08-29T19:35:15.228Z,25.31
2023-08-29T19:40:18.649Z,25.33
2023-08-29T19:45:23.519Z,25.33
2023-08-29T19:50:26.982Z,25.33
2023-08-29T19:55:31.076Z,25.32
2023-08-29T20:00:36.454Z,25.34
2023-08-29T20:05:40.183Z,25.33
2023-08-29T20:10:44.736Z,25.34
2023-08-29T20:15:49.624Z,25.34
2023-08-29T20:20:53.223Z,25.33
2023-08-29T20:25:56.955Z,25.34
2023-08-29T20:31:04.507Z,25.34
2023-08-29T20:36:07.996Z,25.34
2023-08-29T20:41:11.550Z,25.35
2023-08-29T20:46:16.956Z,25.34
2023-08-29T20:51:22.700Z,25.35
2023-08-29T20:56:26.194Z,25.34
2023-08-29T21:01:31.065Z,25.33
2023-08-29T21:06:34.522Z,25.35
2023-08-29T21:11:37.941Z,25.34
2023-08-29T21:16:42.845Z,25.35
2023-08-29T21:21:46.338Z,25.34
2023-08-29T21:26:49.876Z,25.34
2023-08-29T21:31:54.779Z,25.34
2023-08-29T21:36:58.281Z,25.33
2023-08-29T21:42:01.697Z,25.34
2023-08-29T21:47:06.895Z,25.34
2023-08-29T21:52:10.337Z,25.33
2023-08-29T21:57:13.779Z,25.33
2023-08-29T22:02:18.728Z,25.33
2023-08-29T22:07:22.148Z,25.33
2023-08-29T22:12:25.636Z,25.33
2023-08-29T22:17:30.513Z,25.32
2023-08-29T22:22:34.034Z,25.31
2023-08-29T22:27:37.939Z,25.31
2023-08-29T22:32:42.960Z,25.32
2023-08-29T22:37:48.069Z,25.31
2023-08-29T22:42:51.900Z,25.31
2023-08-29T22:47:56.814Z,25.31
2023-08-29T22:53:00.305Z,25.31
2023-08-29T22:58:05.176Z,25.32
2023-08-29T23:03:10.219Z,25.30
2023-08-29T23:08:15.065Z,25.30
2023-08-29T23:13:19.608Z,25.31
2023-08-29T23:18:24.536Z,25.31
2023-08-29T23:23:27.993Z,25.30
2023-08-29T23:28:31.529Z,25.29
2023-08-29T23:33:51.100Z,25.30
2023-08-29T23:38:54.521Z,25.29
2023-08-29T23:43:57.928Z,25.29
2023-08-29T23:49:02.753Z,25.29
2023-08-29T23:54:06.588Z,25.30
2023-08-29T23:59:10.032Z,25.30
